Hovland, Minnesota
Current Conditions -  °F | °C
As of 4:33 PM on Friday 24 Oct 2014 (Local Time) from KCKC Reporting Station
Clear Clear  
Wind Chill: 55°   Ceiling: Unl
Heat Index: 55°   Visibility: 10mi
Dew Point: 45°   Wind: 8mph
Humidity: 67%   Direction: 200°SSW
Pressure: 29.74"   Gusts: NA
Location:  47.84°N, 89.97°W
Report Text: KCKC 242133Z AUTO 20007KT 159V219 10SM CLR 13/07 A2974 RMK AO2
Loading
Personal Weather Stations






























Interactive Weather Map
Tropical Storm Tracking
New forecast layout! Learn more

10-Day Weather Forecast

Advertisements
Track Severe Weather on mobile